Portada
METAR-TAF:

METAR-TAF

Aeropuertos :

Yida, Arabia Saudita

Aeropuerto Internacional Rey Abdulaziz

latitud: 21-42N, longitud: 039-11E, altitud: 15 m

Observación

El informe se hizo hace 14 minutos, a las 13:00 UTC
Viento 20 kt del noroeste
Temperatura 32°C
Humedad 49%
Presión 1007 hPa
Visibilidad 10 km o más
sin nubes por debajo de 1500 m y sin presencia de cumulonimbus.

METAR: OEJN 171300Z 32020KT CAVOK 32/20 Q1007 NOSIG

Hora: 16:14 (13:14 UTC)

Pronóstico

El informe se hizo hace 2 horas y 14 minutos, a las 11:00 UTC
Pronóstico válido del 17 a las 12 UTC al 18 a las 18 UTC
Viento 10 kt del noroeste con ráfagas de 20 kt
Visibilidad 10 km o más
sin nubes por debajo de 1500 m y sin presencia de cumulonimbus.
Evolucionando progresivamente
del 17 a las 18 UTC al 17 a las 20 UTC
Viento 10 kt del norte

TAF: OEJN 171100Z 1712/1818 32010G20KT CAVOK BECMG 1718/1720 01010KT

Observaciones y pronósticos meteorológicos de más de 4000 aeropuertos (mensajes METAR y TAF).

Los puntos amarillos y rojos representan las estaciones disponibles.

Ponga el ratón en el punto deseado para ver el nombre de la estación.

Haga clic para ver las observaciones y los pronósticos meteorológicos.

Para cambiar el mapa : haga clic en los botones verdes con una cruz de color negro para hacer un zoom, en el botón verde con un guión para alejar o en las flechas verdes para mapas adyacentes.


METAR-TAF: